Time;durP1;ratioP1;P1;durP2;ratioP2;P2;SDS_P1;SDS_P2;PMS_P1;PMS_P2;Temp;Humidity;BMP_temperature;BMP_pressure;BME280_temperature;BME280_humidity;BME280_pressure;Samples;Min_cycle;Max_cycle;Signal;HPM_P1;HPM_P2
2023/01/01 00:01:27;;;;;;;9.70;1.35;;;15.10;99.90;;;;;;5012741;28;20105;-65
2023/01/01 00:03:55;;;;;;;35.08;1.98;;;15.20;99.90;;;;;;5012295;28;20052;-65
2023/01/01 00:06:21;;;;;;;1.17;0.60;;;15.10;99.90;;;;;;5012771;28;20467;-65
2023/01/01 00:08:47;;;;;;;7.72;1.80;;;15.10;99.90;;;;;;5012661;28;20036;-65
2023/01/01 00:11:13;;;;;;;2.25;0.82;;;15.10;99.90;;;;;;4995036;28;20022;-65
2023/01/01 00:13:41;;;;;;;4.05;1.95;;;15.00;99.90;;;;;;5012591;28;20385;-66
2023/01/01 00:16:12;;;;;;;8.07;1.65;;;15.00;99.90;;;;;;5012935;28;20117;-65
2023/01/01 00:18:38;;;;;;;6.40;1.80;;;15.00;99.90;;;;;;5012750;28;20033;-65
2023/01/01 00:21:12;;;;;;;7.40;1.05;;;15.10;99.90;;;;;;4994868;28;20030;-67
2023/01/01 00:23:38;;;;;;;8.32;2.60;;;15.10;99.90;;;;;;5012163;28;20092;-65
2023/01/01 00:26:11;;;;;;;5.55;1.30;;;15.10;99.90;;;;;;5012659;28;20060;-65
2023/01/01 00:28:37;;;;;;;1.00;0.82;;;15.10;99.90;;;;;;4995010;28;20030;-65
2023/01/01 00:31:12;;;;;;;2.95;0.75;;;15.10;99.90;;;;;;4983727;28;20038;-64
2023/01/01 00:33:38;;;;;;;0.75;0.52;;;15.10;99.90;;;;;;5012343;28;20022;-65
2023/01/01 00:36:12;;;;;;;7.13;1.80;;;15.10;99.90;;;;;;5012275;28;20363;-65
2023/01/01 00:38:39;;;;;;;5.18;1.35;;;15.10;99.90;;;;;;5012549;28;20069;-65
2023/01/01 00:41:04;;;;;;;3.63;0.90;;;15.00;99.90;;;;;;5012062;28;20022;-65
2023/01/01 00:43:30;;;;;;;3.50;1.45;;;15.00;99.90;;;;;;5011562;28;20523;-65
2023/01/01 00:45:56;;;;;;;10.30;2.22;;;15.00;99.90;;;;;;5012363;28;20053;-65
2023/01/01 00:48:25;;;;;;;4.00;0.60;;;15.00;99.90;;;;;;4994407;28;20037;-65
2023/01/01 00:50:52;;;;;;;4.45;1.95;;;15.00;99.90;;;;;;5012273;28;20409;-65
2023/01/01 00:53:19;;;;;;;2.42;1.23;;;15.00;99.90;;;;;;4994469;28;20438;-65
2023/01/01 00:55:46;;;;;;;0.80;0.38;;;15.00;99.90;;;;;;4994787;28;20030;-66
2023/01/01 00:58:11;;;;;;;1.05;0.50;;;15.10;99.90;;;;;;5012253;28;20386;-65
2023/01/01 01:00:37;;;;;;;2.97;0.75;;;15.20;99.90;;;;;;5015403;28;20025;-65
2023/01/01 01:03:03;;;;;;;6.28;1.40;;;15.00;99.90;;;;;;5015825;28;20463;-65
2023/01/01 01:05:31;;;;;;;0.57;0.57;;;14.90;99.90;;;;;;5015932;28;20459;-65
2023/01/01 01:07:57;;;;;;;3.17;0.93;;;14.90;99.90;;;;;;5015107;28;20026;-65
2023/01/01 01:10:25;;;;;;;5.57;1.90;;;14.90;99.90;;;;;;5015962;28;20512;-65
2023/01/01 01:12:52;;;;;;;8.05;2.13;;;15.00;99.90;;;;;;5015757;28;20367;-65
2023/01/01 01:15:18;;;;;;;0.70;0.52;;;14.90;99.90;;;;;;5015600;28;20034;-65
2023/01/01 01:17:44;;;;;;;12.80;0.95;;;15.00;99.90;;;;;;5016017;28;20037;-70
2023/01/01 01:20:11;;;;;;;1.20;0.85;;;15.00;99.90;;;;;;5015473;28;20094;-66
2023/01/01 01:22:37;;;;;;;3.15;1.52;;;14.90;99.90;;;;;;5015393;28;20438;-64
2023/01/01 01:25:04;;;;;;;4.38;1.10;;;15.10;99.90;;;;;;5015721;28;20026;-65
2023/01/01 01:27:29;;;;;;;7.85;2.58;;;15.00;99.90;;;;;;5015873;28;20022;-65
2023/01/01 01:29:55;;;;;;;7.63;1.80;;;15.00;99.90;;;;;;5015256;28;20394;-65
2023/01/01 01:32:21;;;;;;;4.63;0.95;;;15.00;99.90;;;;;;4997793;28;20442;-65
2023/01/01 01:34:47;;;;;;;0.88;0.77;;;15.00;99.90;;;;;;5015908;28;20417;-65
2023/01/01 01:37:13;;;;;;;21.65;2.03;;;15.00;99.90;;;;;;5015773;28;20042;-65
2023/01/01 01:39:39;;;;;;;4.75;1.33;;;15.00;99.90;;;;;;5015290;28;20068;-64
2023/01/01 01:42:05;;;;;;;2.70;1.20;;;15.00;99.90;;;;;;5014984;28;20394;-65
2023/01/01 01:44:52;;;;;;;1.52;0.63;;;15.10;99.90;;;;;;4997681;28;20042;-65
2023/01/01 01:47:38;;;;;;;1.42;1.33;;;15.10;99.90;;;;;;5015695;28;20433;-65
2023/01/01 01:50:10;;;;;;;2.30;0.55;;;15.00;99.90;;;;;;5001834;28;20068;-68
2023/01/01 01:52:40;;;;;;;5.72;1.45;;;15.10;99.90;;;;;;4979295;28;20057;-65
2023/01/01 01:55:12;;;;;;;10.65;1.63;;;15.20;99.90;;;;;;4994854;28;20069;-65
2023/01/01 01:57:39;;;;;;;1.38;0.80;;;15.30;99.90;;;;;;4995406;28;20049;-66
2023/01/01 02:00:05;;;;;;;4.07;1.38;;;15.30;99.90;;;;;;4994242;28;20031;-69
2023/01/01 02:03:10;;;;;;;0.73;0.57;;;15.40;99.90;;;;;;5008440;28;20034;-64
2023/01/01 02:05:38;;;;;;;11.70;1.38;;;15.40;99.90;;;;;;4978904;28;20494;-64
2023/01/01 02:08:04;;;;;;;4.00;1.08;;;15.40;99.90;;;;;;4997491;28;20052;-64
2023/01/01 02:10:30;;;;;;;2.50;0.85;;;15.40;99.90;;;;;;5014062;28;20076;-63
2023/01/01 02:12:56;;;;;;;2.38;1.00;;;15.40;99.90;;;;;;5014801;28;20462;-64
2023/01/01 02:15:27;;;;;;;4.57;1.65;;;15.40;99.90;;;;;;5014472;28;20026;-65
2023/01/01 02:18:31;;;;;;;4.90;1.58;;;15.40;99.90;;;;;;5014797;28;20439;-64
2023/01/01 02:21:18;;;;;;;1.77;0.73;;;15.40;99.90;;;;;;4967378;28;20038;-70
2023/01/01 02:23:59;;;;;;;1.77;0.50;;;15.40;99.90;;;;;;5014332;28;20557;-64
2023/01/01 02:26:47;;;;;;;3.95;0.82;;;15.40;99.90;;;;;;5014686;28;20046;-64
2023/01/01 02:29:24;;;;;;;1.05;0.52;;;15.40;99.90;;;;;;5014047;28;20033;-64
2023/01/01 02:31:59;;;;;;;1.92;0.95;;;15.40;99.90;;;;;;5014699;28;20152;-64
2023/01/01 02:34:30;;;;;;;0.43;0.43;;;15.40;99.90;;;;;;5014170;28;20115;-65
2023/01/01 02:37:00;;;;;;;2.75;0.77;;;15.30;99.90;;;;;;5013823;28;20383;-66
2023/01/01 02:39:28;;;;;;;4.55;0.75;;;15.20;99.90;;;;;;5012598;28;20422;-65
2023/01/01 02:41:56;;;;;;;4.00;1.25;;;15.20;99.90;;;;;;5013656;28;20038;-65
2023/01/01 02:44:25;;;;;;;2.17;1.13;;;15.20;99.90;;;;;;5014013;28;20387;-68
2023/01/01 02:46:52;;;;;;;4.30;1.02;;;15.30;99.90;;;;;;5014087;28;20018;-65
2023/01/01 02:49:18;;;;;;;1.30;0.80;;;15.10;99.90;;;;;;5013817;28;20018;-65
2023/01/01 02:52:14;;;;;;;2.38;1.30;;;15.20;99.90;;;;;;5014461;28;20025;-65
2023/01/01 02:55:07;;;;;;;6.88;1.00;;;15.10;99.90;;;;;;5012470;28;20046;-65
2023/01/01 02:57:49;;;;;;;9.32;1.98;;;15.00;99.90;;;;;;5013772;28;20022;-65
2023/01/01 03:00:18;;;;;;;1.65;0.88;;;15.00;99.90;;;;;;5013823;28;20038;-68
2023/01/01 03:03:10;;;;;;;7.22;0.98;;;15.10;99.90;;;;;;5013333;28;20010;-65
2023/01/01 03:08:44;;;;;;;3.88;1.25;;;15.10;99.90;;;;;;5001218;28;20084;-65
2023/01/01 03:11:14;;;;;;;4.75;1.50;;;15.10;99.90;;;;;;4994601;28;20591;-66
2023/01/01 03:13:52;;;;;;;0.50;0.50;;;15.10;99.90;;;;;;4992622;28;20072;-65
2023/01/01 03:16:23;;;;;;;0.68;0.68;;;15.20;99.90;;;;;;4992769;28;20038;-66
2023/01/01 03:19:09;;;;;;;6.93;2.63;;;15.10;99.90;;;;;;4995808;28;20344;-65
2023/01/01 03:21:46;;;;;;;1.52;0.63;;;15.20;99.90;;;;;;4995401;28;20034;-68
2023/01/01 03:24:36;;;;;;;4.47;1.73;;;15.10;99.90;;;;;;4993958;28;20046;-65
2023/01/01 03:27:24;;;;;;;5.45;0.95;;;15.10;99.90;;;;;;4994080;28;20019;-65
2023/01/01 03:29:55;;;;;;;21.20;1.02;;;15.20;99.90;;;;;;4992526;28;20061;-65
2023/01/01 03:35:24;;;;;;;4.17;1.13;;;15.30;99.90;;;;;;4996581;28;20026;-64
2023/01/01 03:37:54;;;;;;;3.75;1.52;;;15.30;99.90;;;;;;4992879;28;20030;-65
2023/01/01 03:40:21;;;;;;;7.25;0.80;;;15.20;99.90;;;;;;4995062;28;20125;-64
2023/01/01 03:43:01;;;;;;;4.63;0.93;;;15.20;99.90;;;;;;4975993;28;20493;-64
2023/01/01 03:45:38;;;;;;;1.40;1.00;;;15.20;99.90;;;;;;4994847;28;20089;-64
2023/01/01 03:48:05;;;;;;;2.83;1.23;;;15.20;99.90;;;;;;4995782;28;20022;-65
2023/01/01 03:50:45;;;;;;;13.25;1.48;;;15.20;99.90;;;;;;4995000;28;20030;-64
2023/01/01 03:53:42;;;;;;;5.38;1.75;;;15.20;99.90;;;;;;4993342;28;20034;-65
2023/01/01 03:56:27;;;;;;;4.30;1.30;;;15.10;99.90;;;;;;4993309;28;20018;-64
2023/01/01 03:58:59;;;;;;;5.25;3.45;;;15.10;99.90;;;;;;4975760;28;20058;-64
2023/01/01 04:01:33;;;;;;;1.30;0.73;;;15.10;99.90;;;;;;4993969;28;20109;-64
2023/01/01 04:04:02;;;;;;;1.55;0.60;;;15.10;99.90;;;;;;4994486;28;20076;-65
2023/01/01 04:06:28;;;;;;;2.33;1.23;;;15.20;99.90;;;;;;4994864;28;20060;-64
2023/01/01 04:08:57;;;;;;;2.22;0.85;;;15.10;99.90;;;;;;4993406;28;20037;-65
2023/01/01 04:14:11;;;;;;;3.58;1.13;;;15.10;99.90;;;;;;4992465;28;20109;-64
2023/01/01 04:16:37;;;;;;;3.88;1.13;;;15.10;99.90;;;;;;4974331;28;20102;-64
2023/01/01 04:19:05;;;;;;;0.98;0.43;;;15.10;99.90;;;;;;4994195;28;20392;-64
2023/01/01 04:21:32;;;;;;;5.35;0.77;;;15.10;99.90;;;;;;4995684;28;20030;-64
2023/01/01 04:23:58;;;;;;;2.08;0.60;;;15.00;99.90;;;;;;4976029;28;20418;-65
2023/01/01 04:26:24;;;;;;;8.27;1.55;;;15.00;99.90;;;;;;5008588;28;20022;-65
2023/01/01 04:28:49;;;;;;;0.40;0.40;;;15.00;99.90;;;;;;4993003;28;20423;-64
2023/01/01 04:31:16;;;;;;;0.60;0.60;;;15.00;99.90;;;;;;4992244;28;20026;-64
2023/01/01 04:33:41;;;;;;;2.17;1.05;;;14.90;99.90;;;;;;4990453;28;20038;-65
2023/01/01 04:36:09;;;;;;;3.20;0.40;;;15.00;99.90;;;;;;4997895;28;20029;-64
2023/01/01 04:38:36;;;;;;;6.90;1.52;;;14.90;99.90;;;;;;4999486;28;20109;-64
2023/01/01 04:41:03;;;;;;;1.45;0.85;;;14.80;99.90;;;;;;4979745;28;20109;-64
2023/01/01 04:43:29;;;;;;;1.08;0.35;;;14.90;99.90;;;;;;4997339;28;20030;-64
2023/01/01 04:46:00;;;;;;;1.35;0.63;;;14.90;99.90;;;;;;4998230;28;20022;-64
2023/01/01 04:48:26;;;;;;;2.75;1.35;;;14.90;99.90;;;;;;4997617;28;20042;-64
2023/01/01 04:50:57;;;;;;;7.32;0.95;;;14.80;99.90;;;;;;4998818;28;20505;-65
2023/01/01 04:53:23;;;;;;;6.93;1.60;;;14.80;99.90;;;;;;4995262;28;20048;-68
2023/01/01 04:55:49;;;;;;;9.60;2.55;;;14.70;99.90;;;;;;4996668;28;20088;-64
2023/01/01 04:58:15;;;;;;;3.00;1.05;;;14.50;99.90;;;;;;4995113;28;20030;-65
2023/01/01 05:00:42;;;;;;;13.35;1.48;;;14.20;99.90;;;;;;4996425;28;20023;-64
2023/01/01 05:03:08;;;;;;;5.07;1.92;;;14.10;99.90;;;;;;4998629;28;20101;-64
2023/01/01 05:05:34;;;;;;;2.15;0.77;;;13.80;99.90;;;;;;4997064;28;20039;-64
2023/01/01 05:07:59;;;;;;;7.90;2.55;;;13.50;99.90;;;;;;4997967;28;20014;-64
2023/01/01 05:10:25;;;;;;;3.40;0.45;;;13.30;99.90;;;;;;4996232;28;20022;-65
2023/01/01 05:12:51;;;;;;;3.53;1.33;;;13.20;99.90;;;;;;4996252;28;20695;-66
2023/01/01 05:15:17;;;;;;;16.23;1.83;;;13.10;99.90;;;;;;4995624;28;20042;-64
2023/01/01 05:17:42;;;;;;;5.97;2.10;;;13.10;99.90;;;;;;4996031;28;20019;-64
2023/01/01 05:20:08;;;;;;;1.90;1.10;;;13.10;99.90;;;;;;4998004;28;20429;-64
2023/01/01 05:22:34;;;;;;;6.97;1.17;;;13.10;99.90;;;;;;4995204;28;20475;-63
2023/01/01 05:25:00;;;;;;;6.18;1.58;;;13.00;99.90;;;;;;4996526;28;20039;-64
2023/01/01 05:27:26;;;;;;;1.98;0.82;;;12.80;99.90;;;;;;4995465;28;20104;-65
2023/01/01 05:29:51;;;;;;;3.40;0.60;;;12.50;99.90;;;;;;4996030;28;20032;-66
2023/01/01 05:32:17;;;;;;;8.25;1.30;;;12.40;99.90;;;;;;4994779;28;20391;-65
2023/01/01 05:34:43;;;;;;;4.63;1.50;;;12.30;99.90;;;;;;4995747;28;20068;-65
2023/01/01 05:37:08;;;;;;;1.27;0.25;;;12.30;99.90;;;;;;4998072;28;20018;-65
2023/01/01 05:39:36;;;;;;;2.28;1.52;;;12.30;99.90;;;;;;4996390;28;20026;-65
2023/01/01 05:42:02;;;;;;;2.33;0.47;;;12.30;99.90;;;;;;4997225;28;20026;-67
2023/01/01 05:44:27;;;;;;;4.35;1.10;;;12.30;99.90;;;;;;4995386;28;20034;-66
2023/01/01 05:46:53;;;;;;;2.03;0.63;;;12.10;99.90;;;;;;4996427;28;20382;-66
2023/01/01 05:49:19;;;;;;;3.15;0.40;;;11.90;99.90;;;;;;4996917;28;20414;-65
2023/01/01 05:51:45;;;;;;;2.45;1.35;;;11.80;99.90;;;;;;5004624;28;20030;-65
2023/01/01 05:54:10;;;;;;;4.47;0.47;;;11.80;99.90;;;;;;4996862;28;20042;-65
2023/01/01 05:56:36;;;;;;;2.05;0.57;;;12.00;99.90;;;;;;4995804;28;20077;-66
2023/01/01 05:59:02;;;;;;;3.30;0.98;;;12.00;99.90;;;;;;4995259;28;20105;-68
2023/01/01 06:01:31;;;;;;;3.30;0.10;;;12.20;99.90;;;;;;4994055;28;20018;-65
2023/01/01 06:03:58;;;;;;;0.55;0.40;;;12.20;99.90;;;;;;4996311;28;20049;-65
2023/01/01 06:06:27;;;;;;;14.13;1.40;;;12.20;99.90;;;;;;4995946;28;20054;-65
2023/01/01 06:08:55;;;;;;;1.85;0.60;;;12.30;99.90;;;;;;4995783;28;20446;-65
2023/01/01 06:11:21;;;;;;;0.43;0.43;;;12.30;99.90;;;;;;4978848;28;20014;-65
2023/01/01 06:13:47;;;;;;;5.60;1.30;;;12.30;99.90;;;;;;4977366;28;20034;-64
2023/01/01 06:16:13;;;;;;;2.85;1.15;;;12.40;99.90;;;;;;5012853;28;20026;-64
2023/01/01 06:18:40;;;;;;;2.47;0.47;;;12.40;99.90;;;;;;5014475;28;20022;-65
2023/01/01 06:21:11;;;;;;;0.50;0.17;;;12.30;99.90;;;;;;5014188;28;20041;-67
2023/01/01 06:23:38;;;;;;;3.63;0.65;;;12.40;99.90;;;;;;5014167;28;20030;-68
2023/01/01 06:26:06;;;;;;;0.20;0.20;;;12.30;99.90;;;;;;5014108;28;20069;-67
2023/01/01 06:28:32;;;;;;;2.50;0.75;;;12.40;99.90;;;;;;5014237;28;20093;-68
2023/01/01 06:31:06;;;;;;;5.38;0.82;;;12.40;99.90;;;;;;5014161;28;20180;-66
2023/01/01 06:33:32;;;;;;;6.90;1.05;;;12.40;99.90;;;;;;5014307;28;20429;-65
2023/01/01 06:36:02;;;;;;;5.28;2.00;;;12.40;99.90;;;;;;5014087;28;20022;-66
2023/01/01 06:38:33;;;;;;;3.22;0.60;;;12.50;99.90;;;;;;5014032;28;20040;-65
2023/01/01 06:41:07;;;;;;;0.00;0.00;;;12.50;99.90;;;;;;5013781;28;20500;-65
2023/01/01 06:43:34;;;;;;;1.98;1.35;;;12.50;99.90;;;;;;5013725;28;20040;-69
2023/01/01 06:46:06;;;;;;;0.10;0.10;;;12.50;99.90;;;;;;4991914;28;20034;-65
2023/01/01 06:48:33;;;;;;;;;;;12.50;99.90;;;;;;4995287;28;20022;-65
2023/01/01 06:51:11;;;;;;;1.08;0.57;;;12.60;99.90;;;;;;4995876;28;20369;-65
2023/01/01 06:53:37;;;;;;;1.08;0.60;;;12.50;99.90;;;;;;4994100;28;20386;-66
2023/01/01 06:56:03;;;;;;;0.85;0.50;;;12.50;99.90;;;;;;4993644;28;20440;-65
2023/01/01 06:58:29;;;;;;;7.88;0.52;;;12.40;99.90;;;;;;4992934;28;20054;-65
2023/01/01 07:01:06;;;;;;;6.40;1.42;;;12.40;99.90;;;;;;4995308;28;20677;-65
2023/01/01 07:03:33;;;;;;;5.70;1.02;;;12.30;99.90;;;;;;4994822;28;20105;-68
2023/01/01 07:05:58;;;;;;;6.88;0.43;;;12.20;99.90;;;;;;4995618;28;20040;-64
2023/01/01 07:08:24;;;;;;;4.15;1.17;;;12.20;99.90;;;;;;4993553;28;20471;-64
2023/01/01 07:10:50;;;;;;;2.92;0.70;;;12.20;99.90;;;;;;4994139;28;20030;-65
2023/01/01 07:13:16;;;;;;;15.52;2.72;;;12.30;99.90;;;;;;4993184;28;20027;-65
2023/01/01 07:15:43;;;;;;;5.65;1.70;;;12.20;99.90;;;;;;4992918;28;20022;-65
2023/01/01 07:18:09;;;;;;;3.10;0.82;;;12.00;99.90;;;;;;4997185;28;20549;-64
2023/01/01 07:20:35;;;;;;;2.92;1.55;;;12.00;99.90;;;;;;4994217;28;20034;-64
2023/01/01 07:23:01;;;;;;;13.95;1.13;;;11.80;99.90;;;;;;4995218;28;20121;-64
2023/01/01 07:25:27;;;;;;;1.83;0.70;;;11.70;99.90;;;;;;4993720;28;20088;-64
2023/01/01 07:27:53;;;;;;;2.40;0.57;;;11.60;99.90;;;;;;4994076;28;20018;-65
2023/01/01 07:30:19;;;;;;;2.05;0.68;;;11.50;99.90;;;;;;4992521;28;20030;-65
2023/01/01 07:32:44;;;;;;;9.75;1.08;;;11.50;99.90;;;;;;4992515;28;20065;-65
2023/01/01 07:35:10;;;;;;;1.83;0.25;;;11.40;99.90;;;;;;4997147;28;20014;-65
2023/01/01 07:37:37;;;;;;;18.33;0.85;;;11.50;99.90;;;;;;4994080;28;20081;-65
2023/01/01 07:40:03;;;;;;;0.80;0.28;;;11.50;99.90;;;;;;4995692;28;20424;-64
2023/01/01 07:42:29;;;;;;;4.20;1.02;;;11.50;99.90;;;;;;4992068;28;20034;-64
2023/01/01 07:44:57;;;;;;;42.05;2.10;;;11.40;99.90;;;;;;4993727;28;20052;-65
2023/01/01 07:47:25;;;;;;;1.30;0.45;;;11.50;99.90;;;;;;4996266;28;20018;-63
2023/01/01 07:49:51;;;;;;;1.55;0.45;;;11.50;99.90;;;;;;4976177;28;20038;-64
2023/01/01 07:52:18;;;;;;;1.75;0.40;;;11.60;99.90;;;;;;4994076;28;20023;-64
2023/01/01 07:54:44;;;;;;;0.30;0.30;;;11.50;99.90;;;;;;4977003;28;20045;-64
2023/01/01 07:57:10;;;;;;;0.10;0.10;;;11.50;99.90;;;;;;4993876;28;20065;-68
2023/01/01 07:59:36;;;;;;;9.75;2.95;;;11.50;99.90;;;;;;5012970;28;20022;-65
2023/01/01 08:02:02;;;;;;;0.32;0.32;;;11.40;99.90;;;;;;5012789;28;20029;-68
2023/01/01 08:04:27;;;;;;;6.00;0.80;;;11.40;99.90;;;;;;4994962;28;20048;-64
2023/01/01 08:06:53;;;;;;;1.77;1.23;;;11.40;99.90;;;;;;5012653;28;20029;-64
2023/01/01 08:09:19;;;;;;;1.88;1.27;;;11.50;99.90;;;;;;5002401;28;20045;-64
2023/01/01 08:11:45;;;;;;;3.33;1.05;;;11.60;99.90;;;;;;4976416;28;20045;-64
2023/01/01 08:14:12;;;;;;;4.93;1.50;;;11.60;99.90;;;;;;4993841;28;20029;-64
2023/01/01 08:16:37;;;;;;;1.77;0.68;;;11.70;99.90;;;;;;4994045;28;20058;-64
2023/01/01 08:19:03;;;;;;;0.10;0.10;;;11.80;99.90;;;;;;4992666;28;20065;-65
2023/01/01 08:21:29;;;;;;;5.57;0.77;;;11.80;99.90;;;;;;4974551;28;20038;-64
2023/01/01 08:23:55;;;;;;;0.32;0.22;;;11.70;99.90;;;;;;4994577;28;20039;-65
2023/01/01 08:26:38;;;;;;;0.70;0.70;;;11.90;99.90;;;;;;4995825;28;20033;-64
2023/01/01 08:29:05;;;;;;;5.85;0.55;;;11.80;99.90;;;;;;4991956;28;20030;-64
2023/01/01 08:31:32;;;;;;;0.10;0.10;;;11.80;99.90;;;;;;4996994;28;20060;-64
2023/01/01 08:33:58;;;;;;;4.97;1.33;;;11.80;99.90;;;;;;4959199;28;20396;-64
2023/01/01 08:36:24;;;;;;;3.97;1.35;;;11.80;99.90;;;;;;4993000;28;20029;-67
2023/01/01 08:38:50;;;;;;;0.70;0.70;;;11.80;99.90;;;;;;5007102;28;20030;-64
2023/01/01 08:41:15;;;;;;;0.30;0.30;;;11.90;99.90;;;;;;5008755;28;20399;-64
2023/01/01 08:43:44;;;;;;;2.00;0.73;;;11.80;99.90;;;;;;4995468;28;20110;-65
2023/01/01 08:46:10;;;;;;;0.10;0.10;;;11.80;99.90;;;;;;4994935;28;20153;-64
2023/01/01 08:48:39;;;;;;;0.20;0.20;;;12.00;99.90;;;;;;4993674;28;20117;-65
2023/01/01 08:51:05;;;;;;;0.10;0.10;;;12.00;99.90;;;;;;4997202;28;20030;-65
2023/01/01 08:53:31;;;;;;;0.30;0.30;;;11.90;99.90;;;;;;5010723;28;20038;-64
2023/01/01 08:56:09;;;;;;;0.65;0.32;;;11.90;99.90;;;;;;5010689;28;20062;-64
2023/01/01 08:58:36;;;;;;;0.35;0.35;;;12.00;99.90;;;;;;5010753;28;20026;-65
2023/01/01 09:01:02;;;;;;;0.00;0.00;;;12.00;99.90;;;;;;5005825;28;20463;-64
2023/01/01 09:03:28;;;;;;;0.55;0.45;;;12.00;99.90;;;;;;5000508;28;20029;-65
2023/01/01 09:05:54;;;;;;;1.10;0.20;;;12.00;99.90;;;;;;5011764;28;20041;-65
2023/01/01 09:08:21;;;;;;;0.35;0.35;;;12.10;99.90;;;;;;5011923;28;20018;-65
2023/01/01 09:10:47;;;;;;;0.75;0.55;;;12.20;99.90;;;;;;5011242;28;20421;-64
2023/01/01 09:13:16;;;;;;;2.70;1.30;;;12.10;99.90;;;;;;5011544;28;20040;-65
2023/01/01 09:15:42;;;;;;;4.25;1.20;;;12.10;99.90;;;;;;5012000;28;20022;-64
2023/01/01 09:18:09;;;;;;;5.25;0.73;;;12.10;99.90;;;;;;5011841;28;20026;-64
2023/01/01 09:20:35;;;;;;;0.77;0.60;;;12.20;99.90;;;;;;4995567;28;20778;-64
2023/01/01 09:23:01;;;;;;;3.35;2.15;;;12.30;99.90;;;;;;5007435;28;20025;-65
2023/01/01 09:25:27;;;;;;;2.60;0.65;;;12.30;99.90;;;;;;5010011;28;20039;-64
2023/01/01 09:27:59;;;;;;;0.47;0.47;;;12.30;99.90;;;;;;5014832;28;20025;-65
2023/01/01 09:30:27;;;;;;;0.63;0.63;;;12.30;99.90;;;;;;5013765;28;20566;-64
2023/01/01 09:32:52;;;;;;;0.00;0.00;;;12.30;99.90;;;;;;5014850;28;20084;-64
2023/01/01 09:35:18;;;;;;;0.10;0.10;;;12.50;99.90;;;;;;4996552;28;20042;-68
2023/01/01 09:37:47;;;;;;;5.78;1.80;;;12.50;99.90;;;;;;5014290;28;20073;-64
2023/01/01 09:40:22;;;;;;;0.10;0.10;;;12.50;99.90;;;;;;5014911;28;20037;-64
2023/01/01 09:42:50;;;;;;;4.88;1.27;;;12.50;99.90;;;;;;5013720;28;20113;-65
2023/01/01 09:45:30;;;;;;;3.80;1.15;;;12.40;99.90;;;;;;4996981;28;20049;-65
2023/01/01 09:48:05;;;;;;;0.98;0.52;;;12.40;99.90;;;;;;5014889;28;20061;-64
2023/01/01 09:50:31;;;;;;;2.58;1.50;;;12.60;99.90;;;;;;5014811;28;20030;-66
2023/01/01 09:53:05;;;;;;;8.15;1.30;;;12.70;99.90;;;;;;4997143;28;20029;-64
2023/01/01 09:55:40;;;;;;;0.60;0.30;;;12.70;99.90;;;;;;5015111;28;20036;-65
2023/01/01 09:58:09;;;;;;;12.60;1.75;;;12.70;99.90;;;;;;5014764;28;20030;-64
2023/01/01 10:00:42;;;;;;;1.30;0.50;;;12.60;99.90;;;;;;5014769;28;20474;-64
2023/01/01 10:03:28;;;;;;;0.10;0.10;;;12.90;99.90;;;;;;5014274;28;20030;-64
2023/01/01 10:06:17;;;;;;;3.92;1.13;;;13.00;99.90;;;;;;4996904;28;20046;-66
2023/01/01 10:09:04;;;;;;;0.60;0.55;;;12.80;99.90;;;;;;5014831;28;20061;-66
2023/01/01 10:11:55;;;;;;;0.80;0.55;;;12.90;99.90;;;;;;5014704;28;20032;-65
2023/01/01 10:14:33;;;;;;;10.00;1.02;;;12.90;99.90;;;;;;5014402;28;20521;-66
2023/01/01 10:17:20;;;;;;;2.63;1.20;;;13.10;99.90;;;;;;5014143;28;20360;-65
2023/01/01 10:19:57;;;;;;;0.75;0.55;;;13.10;99.90;;;;;;4995902;28;20052;-67
2023/01/01 10:22:26;;;;;;;2.60;1.67;;;13.00;99.90;;;;;;5014502;28;20034;-65
2023/01/01 10:25:00;;;;;;;7.88;3.65;;;13.20;99.90;;;;;;5013599;28;20092;-65
2023/01/01 10:27:40;;;;;;;4.03;1.15;;;13.30;99.90;;;;;;5014317;28;20034;-65
2023/01/01 10:30:25;;;;;;;1.80;0.47;;;13.30;99.90;;;;;;5013909;28;20041;-65
2023/01/01 10:32:53;;;;;;;8.20;1.13;;;13.20;99.90;;;;;;5013423;28;20028;-64
2023/01/01 10:35:29;;;;;;;7.72;1.95;;;13.30;99.90;;;;;;4982665;28;20052;-64
2023/01/01 10:37:57;;;;;;;6.75;1.58;;;13.40;99.90;;;;;;5013911;28;20474;-65
2023/01/01 10:40:28;;;;;;;3.92;1.20;;;13.40;99.90;;;;;;5013851;28;20025;-65
2023/01/01 10:42:55;;;;;;;4.80;1.00;;;13.40;99.90;;;;;;5014101;28;20034;-65
2023/01/01 10:45:43;;;;;;;1.23;1.13;;;13.50;99.90;;;;;;5013333;28;20095;-65
2023/01/01 10:48:23;;;;;;;0.85;0.30;;;13.60;99.90;;;;;;5008628;28;20370;-65
2023/01/01 10:51:06;;;;;;;4.18;1.48;;;13.60;99.90;;;;;;5011815;28;20049;-65
2023/01/01 10:53:38;;;;;;;3.00;1.50;;;13.60;99.90;;;;;;5007203;28;20034;-64
2023/01/01 10:56:15;;;;;;;1.15;0.70;;;13.50;99.90;;;;;;5013497;28;20026;-66
2023/01/01 10:58:59;;;;;;;7.32;1.30;;;13.50;99.90;;;;;;5013667;28;20026;-65
2023/01/01 11:01:30;;;;;;;5.50;1.85;;;13.40;99.90;;;;;;4995102;28;20021;-68
2023/01/01 11:04:14;;;;;;;8.45;2.22;;;13.40;99.90;;;;;;5007526;28;20042;-68
2023/01/01 11:06:42;;;;;;;2.33;1.65;;;13.40;99.90;;;;;;5013129;28;20029;-69
2023/01/01 11:09:27;;;;;;;10.88;1.75;;;13.50;99.90;;;;;;5012822;28;20154;-65
2023/01/01 11:11:58;;;;;;;6.50;0.98;;;13.50;99.90;;;;;;5011698;28;20030;-64
2023/01/01 11:14:36;;;;;;;14.85;1.98;;;13.60;99.90;;;;;;5013183;28;20030;-64
2023/01/01 11:17:02;;;;;;;9.75;1.95;;;13.50;99.90;;;;;;5012436;28;20026;-64
2023/01/01 11:19:40;;;;;;;5.05;1.75;;;13.60;99.90;;;;;;5013311;28;20079;-64
2023/01/01 11:22:06;;;;;;;0.20;0.20;;;13.60;99.90;;;;;;5013606;28;20041;-64
2023/01/01 11:24:33;;;;;;;0.93;0.40;;;13.70;99.90;;;;;;5013061;28;20121;-64
2023/01/01 11:27:20;;;;;;;0.68;0.68;;;13.80;99.90;;;;;;5013076;28;20029;-69
2023/01/01 11:29:46;;;;;;;2.30;1.30;;;13.80;99.90;;;;;;5012890;28;20060;-64
2023/01/01 11:32:27;;;;;;;11.32;5.78;;;13.80;99.90;;;;;;5012828;28;20104;-64
2023/01/01 11:35:05;;;;;;;2.10;1.38;;;13.90;99.90;;;;;;5013156;28;20064;-67
2023/01/01 11:37:33;;;;;;;0.80;0.47;;;13.90;99.90;;;;;;4995078;28;20482;-64
2023/01/01 11:40:00;;;;;;;9.30;1.98;;;13.90;99.90;;;;;;5013096;28;20026;-64
2023/01/01 11:42:29;;;;;;;2.40;0.68;;;13.80;99.90;;;;;;5012755;28;20030;-66
2023/01/01 11:45:13;;;;;;;0.30;0.30;;;13.90;99.90;;;;;;5011975;28;20042;-64
2023/01/01 11:47:41;;;;;;;12.15;0.32;;;14.20;99.90;;;;;;4981604;28;20112;-65
2023/01/01 11:50:13;;;;;;;4.53;0.88;;;14.20;99.90;;;;;;5012809;28;20026;-65
2023/01/01 11:52:42;;;;;;;4.25;1.20;;;14.20;99.90;;;;;;5012877;28;20025;-66
2023/01/01 11:55:21;;;;;;;4.97;1.98;;;14.30;99.90;;;;;;5013192;28;20435;-64
2023/01/01 11:58:09;;;;;;;4.18;1.63;;;14.50;99.90;;;;;;4995280;28;20201;-64
2023/01/01 12:00:36;;;;;;;3.22;3.05;;;14.60;99.90;;;;;;5012548;28;20030;-65
2023/01/01 12:03:27;;;;;;;11.02;3.25;;;15.10;99.90;;;;;;5012775;28;20030;-65
2023/01/01 12:06:07;;;;;;;6.53;1.35;;;15.20;99.90;;;;;;5012653;28;20056;-65
2023/01/01 12:08:45;;;;;;;22.75;4.00;;;14.80;99.90;;;;;;4995535;28;20037;-64
2023/01/01 12:11:46;;;;;;;4.30;1.38;;;14.50;99.90;;;;;;4994572;28;20468;-64
2023/01/01 12:14:24;;;;;;;14.75;2.17;;;14.50;99.90;;;;;;4984738;28;20046;-64
2023/01/01 12:17:13;;;;;;;3.10;0.70;;;14.40;99.90;;;;;;5012835;28;20018;-64
2023/01/01 12:19:49;;;;;;;6.53;1.15;;;14.30;99.90;;;;;;4994678;28;20088;-64
2023/01/01 12:22:18;;;;;;;1.85;1.35;;;14.30;99.90;;;;;;5012534;28;20034;-64
2023/01/01 12:24:46;;;;;;;0.00;0.00;;;14.20;99.90;;;;;;4995046;28;20042;-63
2023/01/01 12:27:36;;;;;;;4.07;0.95;;;14.30;99.90;;;;;;4994910;28;20118;-64
2023/01/01 12:30:11;;;;;;;0.43;0.32;;;14.20;99.90;;;;;;5012170;28;20518;-64
2023/01/01 12:32:55;;;;;;;16.65;1.60;;;14.20;99.90;;;;;;4994745;28;20102;-64
2023/01/01 12:35:39;;;;;;;5.88;1.17;;;14.10;99.90;;;;;;5012509;28;20474;-64
2023/01/01 12:38:31;;;;;;;5.47;3.10;;;14.00;99.90;;;;;;5012301;28;20049;-65
2023/01/01 12:41:23;;;;;;;;;;;14.00;99.90;;;;;;4997526;28;20466;-66
2023/01/01 12:44:10;;;;;;;0.40;0.40;;;14.20;99.90;;;;;;5012012;28;19944;-64
2023/01/01 12:46:46;;;;;;;15.48;1.35;;;14.30;99.90;;;;;;5012379;28;20387;-64
2023/01/01 12:49:30;;;;;;;9.43;1.00;;;14.20;99.90;;;;;;5012353;28;20093;-64
2023/01/01 12:52:13;;;;;;;0.60;0.10;;;14.10;99.90;;;;;;5012259;28;20041;-64
2023/01/01 12:55:23;;;;;;;9.10;2.10;;;14.30;99.90;;;;;;5013060;28;20109;-65
2023/01/01 12:58:25;;;;;;;2.75;0.95;;;14.40;99.90;;;;;;5015473;28;20044;-64
2023/01/01 13:00:58;;;;;;;9.40;2.40;;;14.20;99.90;;;;;;4991868;28;20050;-64
2023/01/01 13:03:28;;;;;;;3.88;1.13;;;14.10;99.90;;;;;;4998341;28;20482;-64
2023/01/01 13:05:56;;;;;;;5.13;1.70;;;14.10;99.90;;;;;;5016024;28;20195;-65
2023/01/01 13:08:22;;;;;;;12.52;2.50;;;14.00;99.90;;;;;;5015927;28;20037;-64
2023/01/01 13:10:58;;;;;;;2.92;0.38;;;14.00;99.90;;;;;;4997987;28;20045;-64
2023/01/01 13:13:25;;;;;;;13.02;2.38;;;14.00;99.90;;;;;;5015773;28;20030;-64
2023/01/01 13:15:53;;;;;;;0.00;0.00;;;14.00;99.90;;;;;;4998259;28;20022;-63